Time;durP1;ratioP1;P1;durP2;ratioP2;P2;SDS_P1;SDS_P2;PMS_P1;PMS_P2;Temp;Humidity;BMP_temperature;BMP_pressure;BME280_temperature;BME280_humidity;BME280_pressure;Samples;Min_cycle;Max_cycle;Signal;HPM_P1;HPM_P2
2022/04/25 00:01:46;;;;;;;0.50;0.40;;;;;;;;;;4182872;28;20048;-35
2022/04/25 00:03:47;;;;;;;0.30;0.30;;;;;;;;;;4183761;28;20056;-36
2022/04/25 00:05:48;;;;;;;0.20;0.20;;;;;;;;;;4184372;28;20381;-35
2022/04/25 00:07:50;;;;;;;0.80;0.50;;;;;;;;;;4182857;28;20106;-35
2022/04/25 00:09:51;;;;;;;0.40;0.30;;;;;;;;;;4182810;28;20543;-35
2022/04/25 00:11:52;;;;;;;0.32;0.32;;;;;;;;;;4184143;28;20098;-35
2022/04/25 00:13:53;;;;;;;0.40;0.40;;;;;;;;;;4184272;28;20152;-35
2022/04/25 00:15:55;;;;;;;0.50;0.40;;;;;;;;;;4184085;28;20056;-35
2022/04/25 00:17:56;;;;;;;0.20;0.20;;;;;;;;;;4183713;28;20118;-35
2022/04/25 00:19:57;;;;;;;0.35;0.35;;;;;;;;;;4184321;28;20061;-35
2022/04/25 00:21:58;;;;;;;0.30;0.30;;;;;;;;;;4184159;28;20048;-35
2022/04/25 00:23:59;;;;;;;0.30;0.30;;;;;;;;;;4183983;28;20535;-35
2022/04/25 00:26:00;;;;;;;0.40;0.30;;;;;;;;;;4184108;28;20049;-36
2022/04/25 00:28:03;;;;;;;0.30;0.30;;;;;;;;;;4183952;28;20053;-35
2022/04/25 00:30:06;;;;;;;0.20;0.20;;;;;;;;;;4184092;28;20053;-35
2022/04/25 00:32:08;;;;;;;0.28;0.28;;;;;;;;;;4184033;28;20289;-35
2022/04/25 00:34:10;;;;;;;0.40;0.40;;;;;;;;;;4182602;28;20052;-35
2022/04/25 00:36:11;;;;;;;0.20;0.20;;;;;;;;;;4180725;28;20053;-35
2022/04/25 00:38:12;;;;;;;0.60;0.40;;;;;;;;;;4181246;28;20415;-35
2022/04/25 00:40:15;;;;;;;0.30;0.22;;;;;;;;;;4181530;28;20130;-35
2022/04/25 00:42:16;;;;;;;0.50;0.47;;;;;;;;;;4181266;28;20060;-35
2022/04/25 00:44:17;;;;;;;0.45;0.40;;;;;;;;;;4181215;28;20496;-35
2022/04/25 00:46:20;;;;;;;0.38;0.30;;;;;;;;;;4181252;28;20056;-35
2022/04/25 00:48:21;;;;;;;0.25;0.25;;;;;;;;;;4180977;28;20049;-36
2022/04/25 00:50:22;;;;;;;0.30;0.30;;;;;;;;;;4181426;28;20053;-35
2022/04/25 00:52:24;;;;;;;0.38;0.38;;;;;;;;;;4179817;28;20056;-35
2022/04/25 00:54:25;;;;;;;0.35;0.30;;;;;;;;;;4180950;28;20459;-35
2022/04/25 00:56:26;;;;;;;0.30;0.30;;;;;;;;;;4181106;28;20127;-35
2022/04/25 00:58:28;;;;;;;0.30;0.30;;;;;;;;;;4181053;28;20107;-35
2022/04/25 01:00:29;;;;;;;0.30;0.30;;;;;;;;;;4180762;28;20166;-35
2022/04/25 01:02:31;;;;;;;0.30;0.30;;;;;;;;;;4180875;28;20049;-35
2022/04/25 01:04:32;;;;;;;0.30;0.30;;;;;;;;;;4180747;28;20107;-35
2022/04/25 01:06:33;;;;;;;0.40;0.40;;;;;;;;;;4180994;28;20453;-35
2022/04/25 01:08:37;;;;;;;0.20;0.20;;;;;;;;;;4180898;28;20057;-35
2022/04/25 01:10:38;;;;;;;0.20;0.20;;;;;;;;;;4180890;28;20053;-35
2022/04/25 01:12:39;;;;;;;0.20;0.20;;;;;;;;;;4180744;28;20442;-35
2022/04/25 01:14:41;;;;;;;0.30;0.30;;;;;;;;;;4180945;28;20053;-35
2022/04/25 01:16:43;;;;;;;0.30;0.30;;;;;;;;;;4180737;28;20107;-36
2022/04/25 01:18:45;;;;;;;0.30;0.30;;;;;;;;;;4180288;28;20091;-35
2022/04/25 01:20:46;;;;;;;0.20;0.20;;;;;;;;;;4180807;28;20385;-35
2022/04/25 01:22:53;;;;;;;0.50;0.40;;;;;;;;;;4162905;28;20061;-35
2022/04/25 01:27:17;;;;;;;0.32;0.32;;;;;;;;;;4180661;28;20363;-35
2022/04/25 01:29:18;;;;;;;0.60;0.50;;;;;;;;;;4180517;28;20048;-35
2022/04/25 01:31:20;;;;;;;0.30;0.25;;;;;;;;;;4179288;28;20065;-35
2022/04/25 01:33:21;;;;;;;0.30;0.30;;;;;;;;;;4180230;28;20053;-35
2022/04/25 01:35:22;;;;;;;0.28;0.28;;;;;;;;;;4180455;28;20053;-35
2022/04/25 01:37:23;;;;;;;0.47;0.40;;;;;;;;;;4180668;28;20110;-35
2022/04/25 01:39:24;;;;;;;0.55;0.40;;;;;;;;;;4180317;28;20389;-35
2022/04/25 01:41:25;;;;;;;0.22;0.22;;;;;;;;;;4180776;28;20057;-35
2022/04/25 01:43:27;;;;;;;0.40;0.40;;;;;;;;;;4180776;28;20049;-35
2022/04/25 01:45:28;;;;;;;1.08;0.50;;;;;;;;;;4180188;28;20129;-35
2022/04/25 01:47:29;;;;;;;0.30;0.30;;;;;;;;;;4179822;28;20102;-35
2022/04/25 01:49:32;;;;;;;0.28;0.28;;;;;;;;;;4180396;28;20057;-35
2022/04/25 01:51:33;;;;;;;0.30;0.30;;;;;;;;;;4180299;28;20064;-35
2022/04/25 01:53:34;;;;;;;0.50;0.30;;;;;;;;;;4179965;28;20056;-35
2022/04/25 01:55:35;;;;;;;0.50;0.50;;;;;;;;;;4180187;28;20126;-35
2022/04/25 01:57:37;;;;;;;0.30;0.30;;;;;;;;;;4180007;28;20585;-35
2022/04/25 01:59:39;;;;;;;0.40;0.40;;;;;;;;;;4180075;28;20416;-35
2022/04/25 02:01:40;;;;;;;0.28;0.28;;;;;;;;;;4179883;28;20103;-36
2022/04/25 02:03:43;;;;;;;0.50;0.50;;;;;;;;;;4179652;28;20451;-35
2022/04/25 02:05:44;;;;;;;0.30;0.30;;;;;;;;;;4179933;28;20393;-35
2022/04/25 02:07:45;;;;;;;0.30;0.30;;;;;;;;;;4178470;28;20057;-35
2022/04/25 02:09:46;;;;;;;0.30;0.30;;;;;;;;;;4178810;28;20513;-35
2022/04/25 02:11:48;;;;;;;0.30;0.30;;;;;;;;;;4179977;28;20052;-36
2022/04/25 02:13:53;;;;;;;0.50;0.50;;;;;;;;;;4179724;28;20072;-35
2022/04/25 02:15:58;;;;;;;0.40;0.35;;;;;;;;;;4180155;28;20052;-35
2022/04/25 02:17:59;;;;;;;0.45;0.45;;;;;;;;;;4178012;28;20057;-35
2022/04/25 02:20:01;;;;;;;0.30;0.30;;;;;;;;;;4179803;28;20048;-35
2022/04/25 02:22:02;;;;;;;0.20;0.20;;;;;;;;;;4179951;28;20053;-35
2022/04/25 02:24:04;;;;;;;0.30;0.30;;;;;;;;;;4179632;28;20146;-35
2022/04/25 02:26:05;;;;;;;0.63;0.40;;;;;;;;;;4179717;28;20554;-35
2022/04/25 02:28:06;;;;;;;0.30;0.30;;;;;;;;;;4179628;28;20134;-35
2022/04/25 02:30:08;;;;;;;0.30;0.30;;;;;;;;;;4179711;28;20098;-35
2022/04/25 02:32:12;;;;;;;0.50;0.40;;;;;;;;;;4178363;28;20118;-35
2022/04/25 02:34:14;;;;;;;0.40;0.40;;;;;;;;;;4179093;28;20059;-36
2022/04/25 02:36:15;;;;;;;0.30;0.30;;;;;;;;;;4179491;28;20099;-35
2022/04/25 02:38:16;;;;;;;0.30;0.30;;;;;;;;;;4179315;28;20103;-35
2022/04/25 02:40:18;;;;;;;0.32;0.20;;;;;;;;;;4179739;28;20053;-35
2022/04/25 02:42:19;;;;;;;0.40;0.40;;;;;;;;;;4179686;28;20095;-35
2022/04/25 02:44:20;;;;;;;0.30;0.30;;;;;;;;;;4179437;28;20400;-35
2022/04/25 02:46:21;;;;;;;0.30;0.30;;;;;;;;;;4179545;28;20052;-35
2022/04/25 02:48:22;;;;;;;0.35;0.35;;;;;;;;;;4178781;28;20060;-35
2022/04/25 02:50:23;;;;;;;0.20;0.20;;;;;;;;;;4178210;28;20130;-35
2022/04/25 02:52:25;;;;;;;0.45;0.40;;;;;;;;;;4179242;28;20076;-35
2022/04/25 02:54:26;;;;;;;0.30;0.30;;;;;;;;;;4179232;28;20060;-35
2022/04/25 02:56:27;;;;;;;0.25;0.25;;;;;;;;;;4179274;28;20057;-35
2022/04/25 02:58:30;;;;;;;0.50;0.40;;;;;;;;;;4178837;28;20102;-35
2022/04/25 03:00:31;;;;;;;0.30;0.30;;;;;;;;;;4179040;28;20061;-35
2022/04/25 03:02:32;;;;;;;0.63;0.40;;;;;;;;;;4178889;28;20197;-35
2022/04/25 03:04:34;;;;;;;0.47;0.43;;;;;;;;;;4179386;28;20056;-36
2022/04/25 03:06:36;;;;;;;0.20;0.20;;;;;;;;;;4179121;28;20467;-35
2022/04/25 03:08:38;;;;;;;0.40;0.40;;;;;;;;;;4179004;28;20052;-35
2022/04/25 03:10:42;;;;;;;0.32;0.28;;;;;;;;;;4179150;28;20451;-35
2022/04/25 03:12:43;;;;;;;0.25;0.25;;;;;;;;;;4179318;28;20268;-35
2022/04/25 03:14:45;;;;;;;0.68;0.50;;;;;;;;;;4179059;28;20669;-35
2022/04/25 03:16:47;;;;;;;0.43;0.38;;;;;;;;;;4179384;28;20052;-35
2022/04/25 03:18:49;;;;;;;0.40;0.40;;;;;;;;;;4178605;28;20339;-35
2022/04/25 03:20:51;;;;;;;0.20;0.20;;;;;;;;;;4178037;28;20057;-35
2022/04/25 03:22:52;;;;;;;0.45;0.45;;;;;;;;;;4178848;28;20451;-35
2022/04/25 03:24:53;;;;;;;0.32;0.30;;;;;;;;;;4179029;28;20495;-35
2022/04/25 03:26:55;;;;;;;0.30;0.30;;;;;;;;;;4178859;28;20125;-35
2022/04/25 03:28:56;;;;;;;0.50;0.40;;;;;;;;;;4178816;28;20056;-35
2022/04/25 03:30:57;;;;;;;0.47;0.47;;;;;;;;;;4179068;28;20052;-35
2022/04/25 03:32:58;;;;;;;0.25;0.25;;;;;;;;;;4178430;28;20057;-35
2022/04/25 03:34:59;;;;;;;0.30;0.30;;;;;;;;;;4178801;28;20053;-35
2022/04/25 03:37:00;;;;;;;0.40;0.40;;;;;;;;;;4177527;28;20110;-35
2022/04/25 03:39:02;;;;;;;0.30;0.30;;;;;;;;;;4178685;28;20469;-35
2022/04/25 03:41:03;;;;;;;0.22;0.22;;;;;;;;;;4178868;28;20504;-35
2022/04/25 03:43:08;;;;;;;0.20;0.20;;;;;;;;;;4177483;28;20076;-35
2022/04/25 03:45:09;;;;;;;0.30;0.30;;;;;;;;;;4178850;28;20102;-35
2022/04/25 03:47:10;;;;;;;0.30;0.30;;;;;;;;;;4178918;28;20052;-35
2022/04/25 03:49:13;;;;;;;0.30;0.30;;;;;;;;;;4178193;28;20328;-35
2022/04/25 03:51:14;;;;;;;0.32;0.32;;;;;;;;;;4178770;28;20103;-35
2022/04/25 03:53:16;;;;;;;0.30;0.30;;;;;;;;;;4178830;28;20568;-36
2022/04/25 03:57:37;;;;;;;;;;;;;;;;;;4179497;28;20053;-35
2022/04/25 03:59:39;;;;;;;0.50;0.40;;;;;;;;;;4179069;28;19931;-36
2022/04/25 04:01:41;;;;;;;0.50;0.50;;;;;;;;;;4178638;28;20111;-35
2022/04/25 04:03:42;;;;;;;0.30;0.30;;;;;;;;;;4178131;28;20060;-35
2022/04/25 04:05:44;;;;;;;0.30;0.30;;;;;;;;;;4178695;28;20049;-35
2022/04/25 04:07:45;;;;;;;0.25;0.25;;;;;;;;;;4177167;28;20107;-35
2022/04/25 04:09:46;;;;;;;0.30;0.30;;;;;;;;;;4180319;28;20060;-36
2022/04/25 04:11:47;;;;;;;0.30;0.30;;;;;;;;;;4180546;28;20118;-35
2022/04/25 04:13:48;;;;;;;0.55;0.40;;;;;;;;;;4181565;28;20056;-35
2022/04/25 04:15:50;;;;;;;0.40;0.40;;;;;;;;;;4181760;28;20056;-35
2022/04/25 04:17:52;;;;;;;0.40;0.40;;;;;;;;;;4179786;28;20649;-36
2022/04/25 04:19:55;;;;;;;0.55;0.38;;;;;;;;;;4181581;28;20068;-35
2022/04/25 04:21:56;;;;;;;0.38;0.38;;;;;;;;;;4181642;28;20372;-35
2022/04/25 04:23:59;;;;;;;0.30;0.30;;;;;;;;;;4181765;28;20060;-35
2022/04/25 04:26:00;;;;;;;0.85;0.30;;;;;;;;;;4181429;28;20118;-35
2022/04/25 04:28:02;;;;;;;0.22;0.22;;;;;;;;;;4181346;28;20079;-35
2022/04/25 04:30:06;;;;;;;0.30;0.30;;;;;;;;;;4181482;28;20060;-35
2022/04/25 04:32:08;;;;;;;0.30;0.30;;;;;;;;;;4181301;28;20049;-35
2022/04/25 04:34:09;;;;;;;0.20;0.20;;;;;;;;;;4181094;28;20114;-35
2022/04/25 04:36:19;;;;;;;0.40;0.40;;;;;;;;;;4181462;28;20106;-35
2022/04/25 04:38:20;;;;;;;0.40;0.30;;;;;;;;;;4181247;28;20059;-35
2022/04/25 04:40:30;;;;;;;0.22;0.22;;;;;;;;;;4180335;28;20052;-35
2022/04/25 04:42:32;;;;;;;0.95;0.30;;;;;;;;;;4181174;28;20102;-35
2022/04/25 04:44:33;;;;;;;1.05;0.40;;;;;;;;;;4181488;28;20115;-35
2022/04/25 04:46:34;;;;;;;0.25;0.25;;;;;;;;;;4181092;28;20048;-35
2022/04/25 04:48:35;;;;;;;0.30;0.25;;;;;;;;;;4179608;28;20520;-35
2022/04/25 04:50:37;;;;;;;0.20;0.20;;;;;;;;;;4181184;28;20057;-35
2022/04/25 04:52:38;;;;;;;0.75;0.30;;;;;;;;;;4180931;28;20056;-35
2022/04/25 04:54:39;;;;;;;0.65;0.50;;;;;;;;;;4181380;28;20057;-35
2022/04/25 04:56:40;;;;;;;0.43;0.30;;;;;;;;;;4181230;28;20044;-35
2022/04/25 04:58:41;;;;;;;0.88;0.40;;;;;;;;;;4180922;28;20403;-35
2022/04/25 05:00:44;;;;;;;0.32;0.32;;;;;;;;;;4178245;28;20053;-35
2022/04/25 05:02:46;;;;;;;0.20;0.20;;;;;;;;;;4178791;28;20114;-35
2022/04/25 05:04:49;;;;;;;0.20;0.20;;;;;;;;;;4178944;28;20507;-35
2022/04/25 05:06:53;;;;;;;0.30;0.20;;;;;;;;;;4179147;28;20053;-35
2022/04/25 05:08:54;;;;;;;0.30;0.30;;;;;;;;;;4178792;28;20061;-35
2022/04/25 05:10:55;;;;;;;0.20;0.17;;;;;;;;;;4179130;28;20061;-35
2022/04/25 05:12:57;;;;;;;0.73;0.30;;;;;;;;;;4178481;28;20057;-35
2022/04/25 05:14:58;;;;;;;0.20;0.20;;;;;;;;;;4179035;28;20057;-35
2022/04/25 05:17:00;;;;;;;0.70;0.22;;;;;;;;;;4160954;28;20096;-35
2022/04/25 05:19:02;;;;;;;0.40;0.30;;;;;;;;;;4177002;28;20500;-35
2022/04/25 05:21:04;;;;;;;0.20;0.20;;;;;;;;;;4178074;28;20068;-35
2022/04/25 05:23:06;;;;;;;0.20;0.20;;;;;;;;;;4178657;28;20207;-35
2022/04/25 05:25:07;;;;;;;0.20;0.20;;;;;;;;;;4178382;28;20562;-35
2022/04/25 05:27:09;;;;;;;0.20;0.20;;;;;;;;;;4178656;28;20049;-35
2022/04/25 05:29:10;;;;;;;0.20;0.20;;;;;;;;;;4178539;28;20057;-35
2022/04/25 05:31:11;;;;;;;0.47;0.30;;;;;;;;;;4178469;28;20052;-35
2022/04/25 05:33:13;;;;;;;1.95;0.28;;;;;;;;;;4178129;28;20110;-35
2022/04/25 05:35:15;;;;;;;0.32;0.25;;;;;;;;;;4171752;28;20053;-35
2022/04/25 05:37:16;;;;;;;1.10;0.40;;;;;;;;;;4174112;28;20413;-35
2022/04/25 05:39:17;;;;;;;0.17;0.17;;;;;;;;;;4164440;28;20475;-35
2022/04/25 05:41:19;;;;;;;1.75;0.20;;;;;;;;;;4166656;28;20054;-35
2022/04/25 05:43:20;;;;;;;1.05;0.20;;;;;;;;;;4158391;28;20056;-35
2022/04/25 05:45:24;;;;;;;0.45;0.22;;;;;;;;;;4160272;28;20061;-35
2022/04/25 05:47:25;;;;;;;0.15;0.15;;;;;;;;;;4169609;28;20095;-35
2022/04/25 05:52:02;;;;;;;0.22;0.10;;;;;;;;;;4163345;28;20053;-35
2022/04/25 05:54:03;;;;;;;0.68;0.25;;;;;;;;;;4158356;28;20106;-35
2022/04/25 05:56:04;;;;;;;0.30;0.20;;;;;;;;;;4165081;28;20489;-35
2022/04/25 05:58:09;;;;;;;0.70;0.30;;;;;;;;;;4164982;28;20057;-35
2022/04/25 06:00:11;;;;;;;0.17;0.15;;;;;;;;;;4162923;28;20071;-36
2022/04/25 06:02:17;;;;;;;0.40;0.10;;;;;;;;;;4171812;28;20139;-35
2022/04/25 06:04:18;;;;;;;0.20;0.20;;;;;;;;;;4165872;28;20079;-35
2022/04/25 06:06:21;;;;;;;0.20;0.20;;;;;;;;;;4168390;28;20493;-35
2022/04/25 06:08:22;;;;;;;0.50;0.10;;;;;;;;;;4169622;28;20115;-35
2022/04/25 06:10:25;;;;;;;0.20;0.20;;;;;;;;;;4166595;28;20655;-36
2022/04/25 06:12:28;;;;;;;0.47;0.20;;;;;;;;;;4162287;28;20086;-35
2022/04/25 06:14:32;;;;;;;0.10;0.10;;;;;;;;;;4149411;28;20865;-35
2022/04/25 06:16:33;;;;;;;0.88;0.40;;;;;;;;;;4150745;28;20099;-35
2022/04/25 06:18:35;;;;;;;0.20;0.20;;;;;;;;;;4156860;28;20053;-35
2022/04/25 06:20:37;;;;;;;1.13;0.30;;;;;;;;;;4147833;28;20909;-35
2022/04/25 06:22:38;;;;;;;0.90;0.50;;;;;;;;;;4157335;28;20053;-36
2022/04/25 06:24:39;;;;;;;0.85;0.30;;;;;;;;;;4161466;28;20053;-35
2022/04/25 06:26:40;;;;;;;3.25;0.20;;;;;;;;;;4155144;28;20049;-36
2022/04/25 06:28:41;;;;;;;0.17;0.10;;;;;;;;;;4152440;28;20064;-36
2022/04/25 06:30:43;;;;;;;1.50;0.22;;;;;;;;;;4157303;28;20582;-35
2022/04/25 06:32:44;;;;;;;0.73;0.10;;;;;;;;;;4148856;28;20060;-35
2022/04/25 06:34:46;;;;;;;0.20;0.20;;;;;;;;;;4159348;28;20053;-35
2022/04/25 06:36:50;;;;;;;0.30;0.20;;;;;;;;;;4162139;28;20044;-36
2022/04/25 06:38:52;;;;;;;2.30;0.28;;;;;;;;;;4158011;28;20048;-35
2022/04/25 06:40:53;;;;;;;0.88;0.30;;;;;;;;;;4158375;28;20052;-36
2022/04/25 06:42:55;;;;;;;0.52;0.30;;;;;;;;;;4165711;28;20048;-35
2022/04/25 06:44:56;;;;;;;1.50;0.20;;;;;;;;;;4167291;28;20049;-36
2022/04/25 06:46:58;;;;;;;1.65;0.20;;;;;;;;;;4167743;28;20122;-35
2022/04/25 06:51:19;;;;;;;0.73;0.30;;;;;;;;;;4156126;28;20056;-36
2022/04/25 06:53:21;;;;;;;0.63;0.20;;;;;;;;;;4162171;28;20056;-35
2022/04/25 06:55:22;;;;;;;0.47;0.20;;;;;;;;;;4154492;28;20060;-36
2022/04/25 06:57:23;;;;;;;0.52;0.20;;;;;;;;;;4160924;28;20545;-35
2022/04/25 06:59:25;;;;;;;0.82;0.15;;;;;;;;;;4153058;28;20662;-36
2022/04/25 07:01:26;;;;;;;0.47;0.22;;;;;;;;;;4144567;28;20072;-37
2022/04/25 07:03:27;;;;;;;0.40;0.30;;;;;;;;;;4148708;28;20752;-35
2022/04/25 07:05:28;;;;;;;1.73;0.30;;;;;;;;;;4154888;28;20153;-36
2022/04/25 07:07:30;;;;;;;1.85;0.30;;;;;;;;;;4138896;28;20802;-36
2022/04/25 07:09:31;;;;;;;0.57;0.25;;;;;;;;;;4147137;28;20061;-36
2022/04/25 07:11:33;;;;;;;2.55;0.40;;;;;;;;;;4140570;28;20059;-36
2022/04/25 07:13:35;;;;;;;0.68;0.20;;;;;;;;;;4151331;28;20406;-36
2022/04/25 07:15:36;;;;;;;1.45;0.57;;;;;;;;;;4159683;28;20099;-35
2022/04/25 07:17:37;;;;;;;0.63;0.20;;;;;;;;;;4152158;28;20699;-36
2022/04/25 07:19:39;;;;;;;0.35;0.30;;;;;;;;;;4161296;28;20053;-36
2022/04/25 07:28:57;;;;;;;1.13;0.30;;;;;;;;;;4155074;28;20088;-36
2022/04/25 07:30:58;;;;;;;2.30;0.38;;;;;;;;;;4155568;28;20114;-36
2022/04/25 07:33:00;;;;;;;4.00;0.20;;;;;;;;;;4162027;28;20193;-36
2022/04/25 07:35:04;;;;;;;1.00;0.30;;;;;;;;;;4159491;28;20562;-36
2022/04/25 07:37:05;;;;;;;0.82;0.30;;;;;;;;;;4163870;28;20406;-36
2022/04/25 07:39:06;;;;;;;0.77;0.30;;;;;;;;;;4164735;28;20136;-35
2022/04/25 07:41:07;;;;;;;0.57;0.30;;;;;;;;;;4159448;28;20057;-36
2022/04/25 07:43:10;;;;;;;0.93;0.60;;;;;;;;;;4168046;28;20233;-36
2022/04/25 07:45:11;;;;;;;0.90;0.30;;;;;;;;;;4164115;28;20512;-36
2022/04/25 07:47:13;;;;;;;0.20;0.20;;;;;;;;;;4163672;28;20057;-36
2022/04/25 07:49:14;;;;;;;0.90;0.30;;;;;;;;;;4164625;28;20473;-36
2022/04/25 07:51:15;;;;;;;0.28;0.25;;;;;;;;;;4163289;28;20082;-37
2022/04/25 07:53:16;;;;;;;2.15;0.50;;;;;;;;;;4163302;28;20057;-37
2022/04/25 07:55:18;;;;;;;1.00;0.60;;;;;;;;;;4164103;28;20052;-37
2022/04/25 07:57:19;;;;;;;0.70;0.30;;;;;;;;;;4157707;28;20446;-37
2022/04/25 07:59:21;;;;;;;3.75;0.57;;;;;;;;;;4156954;28;20056;-36
2022/04/25 08:01:22;;;;;;;1.00;0.50;;;;;;;;;;4168528;28;20497;-36
2022/04/25 08:03:24;;;;;;;1.05;0.55;;;;;;;;;;4163858;28;20068;-35
2022/04/25 08:05:25;;;;;;;0.20;0.20;;;;;;;;;;4165268;28;20123;-35
2022/04/25 08:07:26;;;;;;;0.47;0.47;;;;;;;;;;4157927;28;20045;-35
2022/04/25 08:09:28;;;;;;;1.65;0.43;;;;;;;;;;4166105;28;20324;-35
2022/04/25 08:11:29;;;;;;;0.40;0.40;;;;;;;;;;4162525;28;20110;-36
2022/04/25 08:18:13;;;;;;;1.75;0.40;;;;;;;;;;4161686;28;20197;-35
2022/04/25 08:20:14;;;;;;;0.60;0.40;;;;;;;;;;4157879;28;20723;-36
2022/04/25 08:22:16;;;;;;;0.30;0.30;;;;;;;;;;4164609;28;20052;-35
2022/04/25 08:24:17;;;;;;;1.13;0.55;;;;;;;;;;4160217;28;20057;-35
2022/04/25 08:26:21;;;;;;;0.45;0.40;;;;;;;;;;4166057;28;20098;-36
2022/04/25 08:28:22;;;;;;;0.30;0.30;;;;;;;;;;4160760;28;20095;-36
2022/04/25 08:30:23;;;;;;;0.68;0.50;;;;;;;;;;4168518;28;20055;-36
2022/04/25 08:32:24;;;;;;;0.40;0.40;;;;;;;;;;4163624;28;21349;-36
2022/04/25 08:34:26;;;;;;;0.43;0.30;;;;;;;;;;4162254;28;20103;-36
2022/04/25 08:36:27;;;;;;;0.30;0.30;;;;;;;;;;4154652;28;20071;-35
2022/04/25 08:38:29;;;;;;;0.50;0.47;;;;;;;;;;4153402;28;20418;-37
2022/04/25 08:40:32;;;;;;;0.47;0.47;;;;;;;;;;4172516;28;20057;-37
2022/04/25 08:42:33;;;;;;;0.35;0.20;;;;;;;;;;4164690;28;20540;-37
2022/04/25 08:44:35;;;;;;;0.30;0.20;;;;;;;;;;4152419;28;20478;-36
2022/04/25 08:46:39;;;;;;;0.47;0.30;;;;;;;;;;4169772;28;20053;-36
2022/04/25 08:48:41;;;;;;;0.40;0.40;;;;;;;;;;4156321;28;20850;-36
2022/04/25 08:50:44;;;;;;;0.45;0.40;;;;;;;;;;4146625;28;20061;-36
2022/04/25 08:52:46;;;;;;;2.58;0.30;;;;;;;;;;4165394;28;20142;-38
2022/04/25 08:54:48;;;;;;;1.42;0.30;;;;;;;;;;4164821;28;20089;-37
2022/04/25 08:56:49;;;;;;;0.40;0.30;;;;;;;;;;4166162;28;20588;-37
2022/04/25 08:58:51;;;;;;;1.77;0.40;;;;;;;;;;4159003;28;20135;-37
2022/04/25 09:00:53;;;;;;;1.55;0.50;;;;;;;;;;4156630;28;20154;-37
2022/04/25 09:02:54;;;;;;;0.60;0.60;;;;;;;;;;4164838;28;20056;-38
2022/04/25 09:04:56;;;;;;;0.88;0.40;;;;;;;;;;4162182;28;20602;-37
2022/04/25 09:06:57;;;;;;;0.60;0.40;;;;;;;;;;4159631;28;20465;-38
2022/04/25 09:08:58;;;;;;;3.03;0.60;;;;;;;;;;4160007;28;20056;-37
2022/04/25 09:13:19;;;;;;;0.43;0.30;;;;;;;;;;4173799;28;20147;-36
2022/04/25 09:15:23;;;;;;;0.80;0.45;;;;;;;;;;4161053;28;20492;-36
2022/04/25 09:17:24;;;;;;;0.80;0.43;;;;;;;;;;4167799;28;20055;-37
2022/04/25 09:19:26;;;;;;;0.68;0.40;;;;;;;;;;4162939;28;20083;-35
2022/04/25 09:21:27;;;;;;;0.75;0.40;;;;;;;;;;4164766;28;20110;-36
2022/04/25 09:23:29;;;;;;;0.55;0.40;;;;;;;;;;4156994;28;20566;-38
2022/04/25 09:25:30;;;;;;;0.75;0.70;;;;;;;;;;4167467;28;20053;-37
2022/04/25 09:27:32;;;;;;;0.90;0.38;;;;;;;;;;4172423;28;20056;-38
2022/04/25 09:29:35;;;;;;;1.92;0.52;;;;;;;;;;4166107;28;20063;-37
2022/04/25 09:31:46;;;;;;;1.00;0.50;;;;;;;;;;4173123;28;20049;-36
2022/04/25 09:33:48;;;;;;;2.97;0.38;;;;;;;;;;4163486;28;20119;-36
2022/04/25 09:35:54;;;;;;;0.40;0.40;;;;;;;;;;4168265;28;21094;-37
2022/04/25 09:38:04;;;;;;;0.60;0.50;;;;;;;;;;4165730;28;20542;-37
2022/04/25 09:40:05;;;;;;;0.50;0.50;;;;;;;;;;4167725;28;20124;-37
2022/04/25 09:42:09;;;;;;;0.40;0.40;;;;;;;;;;4165340;28;20076;-36
2022/04/25 09:44:12;;;;;;;0.77;0.68;;;;;;;;;;4154530;28;20140;-37
2022/04/25 09:46:15;;;;;;;0.70;0.47;;;;;;;;;;4156300;28;20092;-36
2022/04/25 09:48:18;;;;;;;3.22;0.60;;;;;;;;;;4166235;28;20452;-37
2022/04/25 09:50:20;;;;;;;0.50;0.38;;;;;;;;;;4169355;28;20057;-37
2022/04/25 09:52:21;;;;;;;2.60;0.40;;;;;;;;;;4175100;28;20091;-37
2022/04/25 09:54:24;;;;;;;1.27;0.60;;;;;;;;;;4170488;28;20609;-37
2022/04/25 09:56:30;;;;;;;1.45;0.60;;;;;;;;;;4173389;28;20492;-37
2022/04/25 09:58:32;;;;;;;0.70;0.40;;;;;;;;;;4166797;28;20149;-38
2022/04/25 10:00:38;;;;;;;0.85;0.50;;;;;;;;;;4174778;28;20084;-37
2022/04/25 10:02:40;;;;;;;0.95;0.57;;;;;;;;;;4168049;28;20126;-37
2022/04/25 10:04:41;;;;;;;1.08;0.50;;;;;;;;;;4174538;28;20056;-37
2022/04/25 10:06:43;;;;;;;0.30;0.30;;;;;;;;;;4167571;28;20057;-39
2022/04/25 10:08:45;;;;;;;0.57;0.40;;;;;;;;;;4174347;28;20044;-36
2022/04/25 10:10:48;;;;;;;1.08;0.60;;;;;;;;;;4178248;28;20056;-37
2022/04/25 10:12:50;;;;;;;0.70;0.57;;;;;;;;;;4180035;28;20045;-39
2022/04/25 10:14:51;;;;;;;1.75;0.50;;;;;;;;;;4175581;28;20075;-38
2022/04/25 10:16:57;;;;;;;0.50;0.30;;;;;;;;;;4173685;28;20163;-38
2022/04/25 10:18:58;;;;;;;0.30;0.30;;;;;;;;;;4172818;28;20056;-38
2022/04/25 10:21:00;;;;;;;1.52;0.50;;;;;;;;;;4178448;28;20488;-39
2022/04/25 10:23:05;;;;;;;0.60;0.60;;;;;;;;;;4177975;28;20358;-37
2022/04/25 10:25:07;;;;;;;1.70;0.50;;;;;;;;;;4172405;28;20484;-37
2022/04/25 10:27:13;;;;;;;1.17;0.50;;;;;;;;;;4170649;28;20118;-37
2022/04/25 10:29:18;;;;;;;0.50;0.50;;;;;;;;;;4164308;28;20102;-38
2022/04/25 10:31:23;;;;;;;2.13;0.40;;;;;;;;;;4170504;28;20189;-38
2022/04/25 10:33:24;;;;;;;0.82;0.40;;;;;;;;;;4171372;28;20061;-38
2022/04/25 10:35:31;;;;;;;1.00;0.40;;;;;;;;;;4168518;28;20161;-38
2022/04/25 10:37:40;;;;;;;0.40;0.40;;;;;;;;;;4172186;28;20098;-37
2022/04/25 10:39:48;;;;;;;0.47;0.40;;;;;;;;;;4178851;28;20106;-37
2022/04/25 10:44:18;;;;;;;0.50;0.40;;;;;;;;;;4164950;28;20061;-41
2022/04/25 10:46:19;;;;;;;2.00;0.50;;;;;;;;;;4169893;28;20114;-36
2022/04/25 10:48:20;;;;;;;0.50;0.50;;;;;;;;;;4160323;28;20126;-36
2022/04/25 10:50:21;;;;;;;1.15;0.60;;;;;;;;;;4157485;28;20056;-37
2022/04/25 10:52:31;;;;;;;0.68;0.60;;;;;;;;;;4170873;28;20052;-38
2022/04/25 10:54:53;;;;;;;1.08;0.68;;;;;;;;;;4165040;28;20415;-37
2022/04/25 10:57:07;;;;;;;2.20;0.50;;;;;;;;;;4172482;28;20390;-38
2022/04/25 10:59:25;;;;;;;2.35;0.80;;;;;;;;;;4175479;28;20329;-38
2022/04/25 11:01:30;;;;;;;0.40;0.40;;;;;;;;;;4172942;28;20534;-38
2022/04/25 11:03:31;;;;;;;1.67;0.60;;;;;;;;;;4168024;28;20480;-36
2022/04/25 11:05:37;;;;;;;0.50;0.40;;;;;;;;;;4167332;28;20057;-37
2022/04/25 11:07:40;;;;;;;0.43;0.40;;;;;;;;;;4169418;28;20056;-37
2022/04/25 11:09:41;;;;;;;1.25;0.55;;;;;;;;;;4160207;28;20114;-36
2022/04/25 11:11:53;;;;;;;1.73;0.65;;;;;;;;;;4162718;28;20503;-36
2022/04/25 11:13:56;;;;;;;2.75;0.80;;;;;;;;;;4163252;28;20205;-37
2022/04/25 11:16:01;;;;;;;0.38;0.38;;;;;;;;;;4166988;28;20106;-37
2022/04/25 11:18:28;;;;;;;0.40;0.40;;;;;;;;;;4169244;28;21309;-37
2022/04/25 11:20:58;;;;;;;1.02;0.63;;;;;;;;;;4167959;28;20419;-38
2022/04/25 11:22:59;;;;;;;0.50;0.50;;;;;;;;;;4172778;28;20099;-38
2022/04/25 11:25:25;;;;;;;0.68;0.57;;;;;;;;;;4170060;28;20048;-36
2022/04/25 11:27:59;;;;;;;0.63;0.55;;;;;;;;;;4168628;28;20110;-36
2022/04/25 11:30:13;;;;;;;1.02;0.50;;;;;;;;;;4168766;28;20761;-35
2022/04/25 11:32:35;;;;;;;1.63;0.70;;;;;;;;;;4166792;28;20060;-35
2022/04/25 11:34:37;;;;;;;0.93;0.70;;;;;;;;;;4169625;28;20164;-37
2022/04/25 11:36:40;;;;;;;1.95;0.52;;;;;;;;;;4167664;28;20052;-35
2022/04/25 11:41:03;;;;;;;1.48;0.60;;;;;;;;;;4171165;28;20052;-36
2022/04/25 11:43:06;;;;;;;1.00;0.70;;;;;;;;;;4175288;28;20829;-36
2022/04/25 11:45:07;;;;;;;0.73;0.50;;;;;;;;;;4171748;28;20500;-36
2022/04/25 11:47:08;;;;;;;0.90;0.50;;;;;;;;;;4169709;28;20449;-36
2022/04/25 11:49:10;;;;;;;0.70;0.57;;;;;;;;;;4168665;28;20056;-35
2022/04/25 11:51:12;;;;;;;0.90;0.50;;;;;;;;;;4163130;28;20293;-36
2022/04/25 11:53:13;;;;;;;0.70;0.60;;;;;;;;;;4171697;28;20056;-38
2022/04/25 11:55:30;;;;;;;0.90;0.60;;;;;;;;;;4172204;28;20048;-37
2022/04/25 11:57:39;;;;;;;0.60;0.60;;;;;;;;;;4171860;28;20072;-37
2022/04/25 11:59:41;;;;;;;2.40;0.70;;;;;;;;;;4169185;28;20105;-37
2022/04/25 12:01:47;;;;;;;0.73;0.60;;;;;;;;;;4162882;28;20056;-36
2022/04/25 12:03:48;;;;;;;8.32;1.38;;;;;;;;;;4166215;28;20457;-37
2022/04/25 12:05:50;;;;;;;3.05;0.70;;;;;;;;;;4170183;28;20060;-35
2022/04/25 12:17:17;;;;;;;0.68;0.55;;;;;;;;;;4163598;28;20049;-36
2022/04/25 12:19:18;;;;;;;0.95;0.70;;;;;;;;;;4166275;28;20519;-36
2022/04/25 12:21:20;;;;;;;1.98;0.82;;;;;;;;;;4167711;28;20057;-36
2022/04/25 12:23:22;;;;;;;1.45;0.70;;;;;;;;;;4169504;28;20082;-36
2022/04/25 12:25:26;;;;;;;2.28;0.65;;;;;;;;;;4169810;28;20057;-35
2022/04/25 12:27:27;;;;;;;0.68;0.65;;;;;;;;;;4170356;28;20102;-35
2022/04/25 12:29:28;;;;;;;0.85;0.65;;;;;;;;;;4160423;28;20098;-36
2022/04/25 12:31:38;;;;;;;2.78;0.60;;;;;;;;;;4168421;28;20057;-38
2022/04/25 12:33:44;;;;;;;0.95;0.65;;;;;;;;;;4163416;28;20057;-36
2022/04/25 12:35:47;;;;;;;2.30;0.60;;;;;;;;;;4161804;28;20634;-37
2022/04/25 12:37:48;;;;;;;1.38;0.50;;;;;;;;;;4155623;28;20182;-36
2022/04/25 12:40:03;;;;;;;0.70;0.65;;;;;;;;;;4166121;28;20428;-36
2022/04/25 12:42:04;;;;;;;1.10;0.68;;;;;;;;;;4172913;28;20103;-36
2022/04/25 12:44:16;;;;;;;0.65;0.60;;;;;;;;;;4164154;28;20053;-36
2022/04/25 12:46:36;;;;;;;0.77;0.65;;;;;;;;;;4170512;28;20061;-37
2022/04/25 12:48:57;;;;;;;1.13;0.77;;;;;;;;;;4171295;28;20056;-36
2022/04/25 12:50:58;;;;;;;0.50;0.50;;;;;;;;;;4174052;28;20536;-37
2022/04/25 12:52:59;;;;;;;1.73;0.77;;;;;;;;;;4165813;28;20404;-37
2022/04/25 12:55:01;;;;;;;1.23;0.45;;;;;;;;;;4166625;28;20119;-37